Time;durP1;ratioP1;P1;durP2;ratioP2;P2;SDS_P1;SDS_P2;PMS_P1;PMS_P2;Temp;Humidity;BMP_temperature;BMP_pressure;BME280_temperature;BME280_humidity;BME280_pressure;Samples;Min_cycle;Max_cycle;Signal;HPM_P1;HPM_P2
2023/05/14 00:00:10;;;;;;;4.10;2.40;;;;;;;14.39;66.96;64469.53;5091679;28;20184;-60
2023/05/14 00:02:35;;;;;;;3.85;2.65;;;;;;;14.31;67.71;64458.22;5091721;28;20192;-60
2023/05/14 00:05:00;;;;;;;2.80;2.30;;;;;;;14.39;66.27;64469.00;5091728;28;20196;-61
2023/05/14 00:07:29;;;;;;;5.90;2.67;;;;;;;14.35;67.57;64465.16;5091480;28;20564;-57
2023/05/14 00:09:57;;;;;;;4.47;2.30;;;;;;;14.48;67.30;64478.91;5091348;28;20220;-58
2023/05/14 00:12:23;;;;;;;3.17;2.53;;;;;;;14.49;67.03;64479.97;5091499;28;20211;-57
2023/05/14 00:14:48;;;;;;;2.50;2.17;;;;;;;14.42;66.70;64475.38;5090925;28;20200;-59
2023/05/14 00:17:14;;;;;;;2.40;2.20;;;;;;;14.35;67.67;64464.59;5091587;28;20192;-61
2023/05/14 00:19:40;;;;;;;5.90;2.47;;;;;;;14.23;67.47;64452.50;5091440;28;20287;-60
2023/05/14 00:22:07;;;;;;;2.95;2.33;;;;;;;14.27;66.99;64459.44;5091486;28;20188;-61
2023/05/14 00:24:33;;;;;;;2.65;2.45;;;;;;;14.41;67.69;64474.28;5091768;28;20281;-58
2023/05/14 00:26:59;;;;;;;4.47;2.72;;;;;;;14.40;69.15;64470.66;5091298;28;20196;-57
2023/05/14 00:29:24;;;;;;;5.45;2.50;;;;;;;14.49;66.98;64478.00;5091194;28;20254;-59
2023/05/14 00:31:50;;;;;;;6.65;2.80;;;;;;;14.39;67.46;64472.09;5091376;28;20188;-58
2023/05/14 00:34:15;;;;;;;3.70;2.65;;;;;;;14.49;67.00;64482.50;5091348;28;20207;-57
2023/05/14 00:36:40;;;;;;;2.20;2.00;;;;;;;14.56;65.64;64490.78;5091359;28;20674;-60
2023/05/14 00:39:06;;;;;;;4.13;2.50;;;;;;;14.34;68.50;64463.50;5090215;28;20208;-61
2023/05/14 00:41:31;;;;;;;5.20;2.70;;;;;;;14.42;66.41;64470.31;5091089;28;20185;-60
2023/05/14 00:43:57;;;;;;;2.97;2.65;;;;;;;14.34;67.57;64466.59;5090931;28;20239;-62
2023/05/14 00:46:22;;;;;;;4.80;2.47;;;;;;;14.28;69.05;64458.00;5091090;28;20658;-59
2023/05/14 00:48:48;;;;;;;6.05;2.50;;;;;;;14.31;68.62;64460.75;5091286;28;20294;-59
2023/05/14 00:51:14;;;;;;;4.10;2.40;;;;;;;14.37;67.76;64467.34;5090681;28;20215;-59
2023/05/14 00:53:40;;;;;;;2.83;2.33;;;;;;;14.39;68.82;64466.47;5091016;28;20216;-57
2023/05/14 00:56:07;;;;;;;3.72;2.30;;;;;;;14.30;66.58;64460.19;5090717;28;20215;-57
2023/05/14 00:58:32;;;;;;;3.47;2.47;;;;;;;14.28;67.84;64460.00;5090811;28;20228;-57
2023/05/14 01:00:58;;;;;;;3.70;2.10;;;;;;;14.30;68.61;64459.66;5090471;28;20694;-56
2023/05/14 01:03:23;;;;;;;3.78;2.40;;;;;;;14.30;68.41;64459.66;5090807;28;20219;-58
2023/05/14 01:05:59;;;;;;;3.10;2.90;;;;;;;14.37;67.41;64466.78;5090769;28;20224;-56
2023/05/14 01:08:45;;;;;;;2.50;2.30;;;;;;;14.43;68.28;64475.94;5090429;28;20299;-56
2023/05/14 01:11:38;;;;;;;5.85;2.80;;;;;;;14.36;68.06;64466.25;5090614;28;20701;-57
2023/05/14 01:14:25;;;;;;;2.72;2.40;;;;;;;14.45;67.97;64476.13;5090485;28;20263;-58
2023/05/14 01:16:55;;;;;;;3.30;2.38;;;;;;;14.30;69.36;64457.13;5090681;28;20271;-57
2023/05/14 01:19:32;;;;;;;2.95;2.33;;;;;;;14.27;68.84;64456.34;5090767;28;20277;-59
2023/05/14 01:21:57;;;;;;;3.08;2.33;;;;;;;14.20;68.79;64451.19;5090534;28;20187;-59
2023/05/14 01:24:23;;;;;;;2.90;2.40;;;;;;;14.22;68.62;64450.84;5090371;28;20215;-58
2023/05/14 01:26:48;;;;;;;4.03;2.20;;;;;;;14.26;69.45;64455.78;5075030;28;20190;-58
2023/05/14 01:29:27;;;;;;;2.30;1.90;;;;;;;14.28;68.48;64454.94;5093892;28;20215;-57
2023/05/14 01:31:56;;;;;;;4.63;2.30;;;;;;;14.38;66.71;64470.44;5093864;28;20309;-59
2023/05/14 01:34:25;;;;;;;3.15;2.10;;;;;;;14.31;66.20;64460.75;5094233;28;20662;-58
2023/05/14 01:36:52;;;;;;;2.40;2.20;;;;;;;14.02;69.16;64429.44;5093902;28;20233;-57
2023/05/14 01:39:18;;;;;;;3.15;2.60;;;;;;;14.07;68.80;64434.38;5094124;28;20386;-57
2023/05/14 01:41:45;;;;;;;2.45;2.25;;;;;;;14.16;67.61;64444.25;5093876;28;20626;-56
2023/05/14 01:44:11;;;;;;;4.60;2.30;;;;;;;14.18;68.08;64446.47;5093978;28;20216;-57
2023/05/14 01:46:37;;;;;;;2.83;2.10;;;;;;;14.09;68.09;64436.56;5093857;28;20572;-60
2023/05/14 01:49:02;;;;;;;2.58;2.20;;;;;;;14.05;70.29;64434.72;5093764;28;20216;-60
2023/05/14 01:51:28;;;;;;;2.15;1.95;;;;;;;13.99;70.66;64423.06;5093957;28;20294;-64
2023/05/14 01:53:53;;;;;;;2.97;2.10;;;;;;;13.96;68.53;64419.75;5093549;28;20591;-61
2023/05/14 01:56:23;;;;;;;2.45;2.10;;;;;;;13.98;69.82;64427.56;5093645;28;20241;-63
2023/05/14 01:58:48;;;;;;;2.80;1.83;;;;;;;13.89;71.58;64415.16;5093758;28;20215;-60
2023/05/14 02:01:14;;;;;;;7.43;2.60;;;;;;;13.92;72.20;64415.91;5093897;28;20184;-59
2023/05/14 02:03:39;;;;;;;3.33;2.28;;;;;;;13.88;70.80;64414.06;5093761;28;20246;-60
2023/05/14 02:06:05;;;;;;;2.60;2.40;;;;;;;13.89;71.50;64414.59;5093191;28;20242;-58
2023/05/14 02:08:30;;;;;;;3.27;2.33;;;;;;;13.79;74.96;64401.09;5093575;28;20564;-60
2023/05/14 02:10:55;;;;;;;3.30;2.50;;;;;;;13.79;74.09;64403.63;5092942;28;20216;-60
2023/05/14 02:13:21;;;;;;;2.53;2.33;;;;;;;13.64;77.49;64390.22;5093506;28;20212;-60
2023/05/14 02:15:48;;;;;;;3.65;2.28;;;;;;;13.64;76.60;64384.63;5093295;28;20188;-58
2023/05/14 02:18:14;;;;;;;3.00;2.40;;;;;;;13.53;75.68;64372.53;5092145;28;20655;-59
2023/05/14 02:20:39;;;;;;;2.90;2.50;;;;;;;13.48;76.03;64370.13;5093631;28;20188;-59
2023/05/14 02:23:05;;;;;;;3.53;2.40;;;;;;;13.40;76.26;64364.44;5093108;28;20243;-60
2023/05/14 02:25:30;;;;;;;2.40;2.20;;;;;;;13.46;76.88;64365.41;5093194;28;20632;-60
2023/05/14 02:27:56;;;;;;;3.13;2.00;;;;;;;13.50;76.91;64374.88;5093150;28;20192;-63
2023/05/14 02:30:21;;;;;;;3.40;2.10;;;;;;;13.46;74.72;64371.03;5093138;28;20211;-61
2023/05/14 02:32:46;;;;;;;2.88;2.40;;;;;;;13.45;71.77;64367.38;5093115;28;20203;-61
2023/05/14 02:35:12;;;;;;;3.60;2.00;;;;;;;13.36;71.34;64360.03;5074737;28;20657;-58
2023/05/14 02:37:37;;;;;;;2.40;1.60;;;;;;;13.16;72.59;64335.56;5092974;28;20188;-57
2023/05/14 02:40:03;;;;;;;2.77;1.70;;;;;;;13.22;72.11;64342.16;5074844;28;20879;-59
2023/05/14 02:42:29;;;;;;;3.30;2.42;;;;;;;13.15;73.11;64337.00;5093203;28;20199;-60
2023/05/14 02:44:54;;;;;;;2.53;1.73;;;;;;;13.27;72.19;64347.63;5092753;28;20560;-60
2023/05/14 02:47:20;;;;;;;2.67;2.20;;;;;;;13.24;71.22;64341.81;5093096;28;20559;-62
2023/05/14 02:49:45;;;;;;;2.20;2.00;;;;;;;13.17;72.21;64336.66;5092752;28;20224;-61
2023/05/14 02:52:11;;;;;;;2.03;1.83;;;;;;;13.31;71.14;64354.56;5092858;28;20300;-59
2023/05/14 02:54:36;;;;;;;2.70;2.10;;;;;;;13.21;70.61;64340.50;5092959;28;20642;-56
2023/05/14 02:57:01;;;;;;;2.73;1.70;;;;;;;13.32;70.56;64355.09;5092681;28;20626;-56
2023/05/14 02:59:27;;;;;;;4.00;1.90;;;;;;;13.25;70.52;64344.91;5092515;28;20216;-56
2023/05/14 03:01:52;;;;;;;2.83;2.00;;;;;;;13.16;70.90;64332.47;5092716;28;20183;-57
2023/05/14 03:04:18;;;;;;;3.47;2.00;;;;;;;13.31;71.74;64352.00;5092838;28;20212;-56
2023/05/14 03:06:43;;;;;;;2.27;2.03;;;;;;;13.31;72.36;64354.00;5092681;28;20220;-56
2023/05/14 03:09:08;;;;;;;4.27;2.17;;;;;;;13.13;72.54;64332.25;5092779;28;20247;-57
2023/05/14 03:11:34;;;;;;;2.50;2.17;;;;;;;13.06;73.66;64326.56;5091289;28;20215;-56
2023/05/14 03:14:00;;;;;;;2.13;1.80;;;;;;;12.91;73.54;64305.03;5092704;28;20682;-57
2023/05/14 03:16:26;;;;;;;4.83;1.97;;;;;;;13.03;74.30;64318.22;5092340;28;20328;-57
2023/05/14 03:18:51;;;;;;;4.47;2.03;;;;;;;12.92;76.47;64309.22;5092411;28;20212;-56
2023/05/14 03:21:17;;;;;;;2.67;2.47;;;;;;;12.88;76.70;64304.81;5092182;28;20275;-56
2023/05/14 03:23:42;;;;;;;3.80;2.30;;;;;;;12.95;75.01;64315.03;5091960;28;20219;-57
2023/05/14 03:26:07;;;;;;;3.13;2.17;;;;;;;13.02;75.63;64319.63;5092312;28;20192;-56
2023/05/14 03:28:33;;;;;;;3.33;1.97;;;;;;;13.01;75.18;64321.59;5092589;28;20707;-60
2023/05/14 03:30:59;;;;;;;3.27;2.20;;;;;;;12.94;75.29;64308.31;5091933;28;20212;-59
2023/05/14 03:33:24;;;;;;;4.20;2.37;;;;;;;12.97;74.99;64314.69;5092282;28;20219;-59
2023/05/14 03:35:50;;;;;;;2.90;2.53;;;;;;;12.76;75.89;64291.66;5091928;28;20308;-58
2023/05/14 03:38:16;;;;;;;2.17;1.87;;;;;;;12.69;77.13;64283.97;5091988;28;20208;-59
2023/05/14 03:40:43;;;;;;;1.97;1.87;;;;;;;12.56;79.51;64270.25;5092129;28;20334;-58
2023/05/14 03:43:10;;;;;;;2.30;2.03;;;;;;;12.59;78.91;64273.56;5091416;28;20226;-57
2023/05/14 03:45:35;;;;;;;2.47;2.13;;;;;;;12.40;80.13;64252.72;5091647;28;20191;-56
2023/05/14 03:48:01;;;;;;;3.83;2.13;;;;;;;12.19;80.38;64229.13;5090102;28;20220;-57
2023/05/14 03:50:26;;;;;;;2.97;2.43;;;;;;;12.14;81.89;64224.22;5091767;28;20203;-56
2023/05/14 03:52:52;;;;;;;2.47;2.10;;;;;;;12.17;82.10;64226.94;5091953;28;20192;-56
2023/05/14 03:55:19;;;;;;;3.20;1.93;;;;;;;12.14;82.29;64221.16;5091814;28;20191;-56
2023/05/14 03:57:44;;;;;;;2.30;2.10;;;;;;;12.18;81.99;64230.59;5091796;28;20204;-57
2023/05/14 04:00:10;;;;;;;2.83;2.13;;;;;;;12.17;81.53;64224.44;5091735;28;20188;-55
2023/05/14 04:02:36;;;;;;;2.73;2.13;;;;;;;12.21;80.57;64229.38;5091694;28;20203;-55
2023/05/14 04:05:01;;;;;;;2.60;1.90;;;;;;;12.17;82.82;64229.47;5091672;28;20200;-56
2023/05/14 04:07:26;;;;;;;3.37;2.00;;;;;;;12.21;81.73;64231.88;5091587;28;20666;-57
2023/05/14 04:09:52;;;;;;;4.13;2.03;;;;;;;12.17;85.34;64230.03;5091673;28;20216;-56
2023/05/14 04:12:17;;;;;;;2.67;2.27;;;;;;;12.19;84.37;64232.22;5091658;28;20200;-56
2023/05/14 04:14:43;;;;;;;8.50;2.43;;;;;;;12.31;82.75;64244.81;5091511;28;20200;-57
2023/05/14 04:17:08;;;;;;;2.50;2.13;;;;;;;12.30;82.63;64243.75;5091509;28;20204;-56
2023/05/14 04:19:33;;;;;;;2.17;1.97;;;;;;;12.33;80.54;64247.56;5073212;28;20269;-59
2023/05/14 04:21:59;;;;;;;7.17;2.47;;;;;;;12.40;82.76;64255.25;5091360;28;20287;-58
2023/05/14 04:24:24;;;;;;;5.37;2.20;;;;;;;12.43;81.23;64258.53;5091455;28;20229;-58
2023/05/14 04:26:49;;;;;;;6.17;3.07;;;;;;;12.45;81.21;64258.19;5091473;28;20222;-61
2023/05/14 04:29:15;;;;;;;4.13;2.43;;;;;;;12.53;79.74;64266.44;5091430;28;20513;-59
2023/05/14 04:31:41;;;;;;;3.13;2.30;;;;;;;12.41;79.57;64256.34;5091500;28;20179;-60
2023/05/14 04:34:07;;;;;;;2.93;2.20;;;;;;;12.29;81.08;64240.66;5091542;28;20669;-60
2023/05/14 04:36:33;;;;;;;4.07;2.30;;;;;;;12.35;79.84;64244.16;5091505;28;20259;-59
2023/05/14 04:38:58;;;;;;;2.70;2.00;;;;;;;12.23;81.60;64236.06;5091559;28;20578;-61
2023/05/14 04:41:24;;;;;;;3.87;2.27;;;;;;;12.24;81.97;64237.16;5091342;28;20275;-59
2023/05/14 04:43:49;;;;;;;3.60;2.60;;;;;;;12.24;84.04;64234.63;5073249;28;20208;-56
2023/05/14 04:46:15;;;;;;;6.33;2.53;;;;;;;12.12;84.82;64221.47;5091168;28;20267;-56
2023/05/14 04:48:41;;;;;;;4.73;2.70;;;;;;;12.12;84.99;64227.06;5091245;28;20265;-55
2023/05/14 04:51:06;;;;;;;3.30;2.30;;;;;;;11.98;87.02;64206.13;5090860;28;20607;-57
2023/05/14 04:53:32;;;;;;;3.97;2.50;;;;;;;12.13;87.14;64222.56;5091006;28;20715;-56
2023/05/14 04:55:57;;;;;;;2.17;2.00;;;;;;;12.10;85.19;64222.34;5090919;28;20230;-57
2023/05/14 04:58:23;;;;;;;2.30;2.10;;;;;;;12.05;85.89;64216.31;5091227;28;20239;-60
2023/05/14 05:00:48;;;;;;;3.07;2.70;;;;;;;11.99;88.20;64207.78;5089885;28;20180;-56
2023/05/14 05:03:14;;;;;;;2.50;2.23;;;;;;;11.97;88.07;64207.56;5090225;28;20295;-60
2023/05/14 05:05:39;;;;;;;3.63;2.23;;;;;;;12.01;89.18;64209.41;5090986;28;20267;-56
2023/05/14 05:08:05;;;;;;;4.37;2.80;;;;;;;11.91;89.47;64200.97;5090763;28;20591;-55
2023/05/14 05:10:30;;;;;;;2.57;2.37;;;;;;;11.82;91.95;64187.16;5090891;28;20302;-57
2023/05/14 05:12:55;;;;;;;6.70;2.77;;;;;;;11.80;94.19;64187.50;5090814;28;20184;-56
2023/05/14 05:15:21;;;;;;;3.03;2.30;;;;;;;11.67;93.87;64175.78;5090927;28;20188;-56
2023/05/14 05:17:47;;;;;;;2.70;2.50;;;;;;;11.66;94.49;64171.59;5090923;28;20188;-56
2023/05/14 05:20:13;;;;;;;3.67;2.50;;;;;;;11.40;96.13;64146.16;5089346;28;20196;-57
2023/05/14 05:22:38;;;;;;;2.63;2.40;;;;;;;11.48;97.34;64152.41;5090882;28;20192;-56
2023/05/14 05:25:11;;;;;;;3.77;3.37;;;;;;;11.66;100.00;64176.66;5090609;28;20262;-58
2023/05/14 05:27:38;;;;;;;3.60;2.53;;;;;;;11.65;100.00;64171.03;5090554;28;20196;-58
2023/05/14 05:30:05;;;;;;;4.67;3.20;;;;;;;11.68;100.00;64174.34;5089204;28;20267;-59
2023/05/14 05:32:30;;;;;;;4.07;2.77;;;;;;;11.56;100.00;64158.09;5090663;28;20203;-58
2023/05/14 05:34:56;;;;;;;4.30;2.60;;;;;;;11.60;100.00;64168.06;5090325;28;20211;-58
2023/05/14 05:37:21;;;;;;;2.57;2.37;;;;;;;11.50;100.00;64154.03;5090572;28;20184;-59
2023/05/14 05:39:48;;;;;;;5.33;2.77;;;;;;;11.42;100.00;64147.81;5090476;28;20240;-54
2023/05/14 05:42:13;;;;;;;6.43;2.90;;;;;;;11.30;100.00;64132.69;5090748;28;20191;-60
2023/05/14 05:44:39;;;;;;;4.70;2.73;;;;;;;11.35;100.00;64137.63;5090659;28;20682;-60
2023/05/14 05:47:04;;;;;;;6.00;2.90;;;;;;;11.29;100.00;64134.09;5090732;28;20286;-60
2023/05/14 05:49:30;;;;;;;5.47;2.77;;;;;;;11.22;100.00;64126.44;5090411;28;20694;-64
2023/05/14 05:51:56;;;;;;;5.23;3.43;;;;;;;11.21;100.00;64122.81;5090526;28;20191;-58
2023/05/14 05:54:23;;;;;;;7.33;3.00;;;;;;;11.39;100.00;64145.06;5090402;28;20204;-61
2023/05/14 05:56:48;;;;;;;5.10;3.33;;;;;;;11.38;100.00;64141.44;5090411;28;20639;-59
2023/05/14 05:59:14;;;;;;;5.47;3.20;;;;;;;11.38;100.00;64140.91;5090425;28;20214;-59
2023/05/14 06:01:42;;;;;;;3.27;2.67;;;;;;;11.19;100.00;64120.63;5090484;28;20675;-59
2023/05/14 06:04:08;;;;;;;6.67;3.30;;;;;;;11.23;100.00;64125.00;5089314;28;20305;-59
2023/05/14 06:06:34;;;;;;;4.43;2.77;;;;;;;11.25;100.00;64126.66;5090330;28;20184;-58
2023/05/14 06:09:00;;;;;;;5.17;3.10;;;;;;;11.06;100.00;64108.38;5090788;28;20216;-56
2023/05/14 06:11:26;;;;;;;4.47;3.27;;;;;;;10.96;100.00;64101.06;5091034;28;20216;-57
2023/05/14 06:13:51;;;;;;;6.80;4.23;;;;;;;11.10;100.00;64110.78;5094005;28;20220;-56
2023/05/14 06:16:17;;;;;;;5.23;3.20;;;;;;;11.02;100.00;64107.06;5092455;28;20191;-55
2023/05/14 06:18:43;;;;;;;4.73;3.30;;;;;;;11.17;100.00;64118.44;5093711;28;20240;-56
2023/05/14 06:21:08;;;;;;;5.00;3.07;;;;;;;11.14;100.00;64114.63;5093753;28;20669;-58
2023/05/14 06:23:33;;;;;;;4.53;3.20;;;;;;;11.10;100.00;64110.22;5093572;28;20265;-56
2023/05/14 06:25:59;;;;;;;3.57;3.17;;;;;;;11.04;100.00;64106.19;5093576;28;20633;-57
2023/05/14 06:28:25;;;;;;;6.80;4.03;;;;;;;10.99;100.00;64101.25;5093723;28;20212;-56
2023/05/14 06:30:50;;;;;;;7.37;3.50;;;;;;;11.20;100.00;64121.19;5093515;28;20236;-59
2023/05/14 06:33:16;;;;;;;7.33;3.73;;;;;;;11.01;100.00;64103.44;5093605;28;20223;-59
2023/05/14 06:35:41;;;;;;;5.90;3.87;;;;;;;10.98;100.00;64095.13;5093384;28;20622;-59
2023/05/14 06:38:06;;;;;;;8.37;4.03;;;;;;;11.09;100.00;64112.19;5093333;28;20234;-60
2023/05/14 06:40:32;;;;;;;5.27;3.73;;;;;;;11.18;100.00;64119.53;5092257;28;20309;-59
2023/05/14 06:42:57;;;;;;;5.67;4.27;;;;;;;11.33;100.00;64133.44;5091916;28;20658;-59
2023/05/14 06:45:23;;;;;;;4.90;3.90;;;;;;;11.35;100.00;64140.69;5075167;28;20594;-62
2023/05/14 06:47:48;;;;;;;6.90;4.30;;;;;;;11.33;100.00;64138.50;5075193;28;20216;-59
2023/05/14 06:50:13;;;;;;;7.67;5.17;;;;;;;11.40;100.00;64143.66;5093241;28;20700;-61
2023/05/14 06:52:39;;;;;;;7.03;4.30;;;;;;;11.40;100.00;64143.09;5093303;28;20228;-58
2023/05/14 06:55:11;;;;;;;6.07;4.17;;;;;;;11.61;100.00;64166.09;5093060;28;20720;-59
2023/05/14 06:57:37;;;;;;;5.63;4.13;;;;;;;11.83;100.00;64192.75;5093017;28;20341;-58
2023/05/14 07:00:03;;;;;;;8.57;4.50;;;;;;;11.99;100.00;64207.22;5074446;28;20205;-59
2023/05/14 07:02:29;;;;;;;7.83;5.30;;;;;;;11.96;100.00;64201.94;5092787;28;20196;-59
2023/05/14 07:04:54;;;;;;;6.43;4.90;;;;;;;11.97;100.00;64207.56;5092481;28;20554;-59
2023/05/14 07:07:20;;;;;;;8.07;5.40;;;;;;;11.87;100.00;64196.59;5092634;28;20188;-59
2023/05/14 07:09:46;;;;;;;7.63;5.07;;;;;;;11.93;100.00;64203.72;5092607;28;20753;-61
2023/05/14 07:12:11;;;;;;;8.87;5.17;;;;;;;12.00;100.00;64208.31;5092725;28;20686;-54
2023/05/14 07:14:37;;;;;;;7.17;4.70;;;;;;;12.17;100.00;64224.44;5092336;28;20685;-54
2023/05/14 07:17:02;;;;;;;6.60;4.20;;;;;;;12.27;100.00;64238.47;5092725;28;20199;-56
2023/05/14 07:19:29;;;;;;;5.53;4.53;;;;;;;12.26;100.00;64236.81;5092314;28;20713;-56
2023/05/14 07:21:56;;;;;;;7.53;4.67;;;;;;;12.15;100.00;64227.84;5090480;28;20273;-58
2023/05/14 07:24:22;;;;;;;7.17;4.07;;;;;;;12.11;100.00;64223.44;5091149;28;20220;-55
2023/05/14 07:26:48;;;;;;;5.87;4.23;;;;;;;12.22;100.00;64232.97;5092511;28;20199;-54
2023/05/14 07:29:13;;;;;;;12.50;6.33;;;;;;;12.38;100.00;64253.03;5092446;28;20216;-54
2023/05/14 07:31:39;;;;;;;7.33;4.53;;;;;;;12.30;100.00;64241.75;5090534;28;20588;-56
2023/05/14 07:34:04;;;;;;;5.37;3.87;;;;;;;12.30;100.00;64241.22;5092580;28;20327;-56
2023/05/14 07:36:30;;;;;;;6.27;4.50;;;;;;;12.22;100.00;64234.97;5092185;28;20192;-56
2023/05/14 07:38:55;;;;;;;8.83;3.67;;;;;;;11.95;100.00;64200.31;5092535;28;20212;-55
2023/05/14 07:41:21;;;;;;;4.73;4.03;;;;;;;11.80;100.00;64190.00;5092308;28;20188;-55
2023/05/14 07:43:46;;;;;;;8.27;4.60;;;;;;;11.77;100.00;64181.13;5092259;28;20243;-55
2023/05/14 07:46:12;;;;;;;5.43;4.23;;;;;;;11.72;100.00;64181.25;5092215;28;20195;-54
2023/05/14 07:48:37;;;;;;;6.10;4.40;;;;;;;11.82;100.00;64191.66;5099614;22;20307;-57
2023/05/14 07:51:02;;;;;;;7.20;4.40;;;;;;;11.97;100.00;64205.59;5073791;28;20215;-59
2023/05/14 07:53:28;;;;;;;7.17;4.43;;;;;;;11.72;100.00;64178.16;5085339;28;20627;-59
2023/05/14 07:55:53;;;;;;;12.83;4.50;;;;;;;11.79;100.00;64188.94;5071629;28;20223;-57
2023/05/14 07:58:19;;;;;;;9.50;4.43;;;;;;;11.70;100.00;64175.97;5071651;28;20311;-58
2023/05/14 08:00:44;;;;;;;11.03;5.00;;;;;;;11.64;100.00;64172.47;5071669;28;20201;-58
2023/05/14 08:03:10;;;;;;;7.50;4.20;;;;;;;11.82;100.00;64189.69;5071810;28;20702;-60
2023/05/14 08:05:35;;;;;;;7.23;3.80;;;;;;;11.81;100.00;64190.56;5071709;28;20200;-60
2023/05/14 08:08:01;;;;;;;6.37;5.13;;;;;;;11.85;100.00;64194.41;5071730;28;20370;-56
2023/05/14 08:10:26;;;;;;;7.50;4.20;;;;;;;11.74;100.00;64182.88;5071428;28;20586;-55
2023/05/14 08:12:52;;;;;;;13.90;4.57;;;;;;;11.74;100.00;64183.44;5071708;28;20717;-58
2023/05/14 08:15:17;;;;;;;6.37;4.60;;;;;;;11.73;100.00;64179.28;5071495;28;20189;-55
2023/05/14 08:17:43;;;;;;;8.00;4.97;;;;;;;11.86;100.00;64192.97;5071427;28;20349;-55
2023/05/14 08:20:09;;;;;;;7.63;4.97;;;;;;;11.91;100.00;64198.44;5071517;28;20684;-54
2023/05/14 08:22:34;;;;;;;8.80;4.53;;;;;;;12.15;100.00;64227.28;5053379;28;20281;-54
2023/05/14 08:25:02;;;;;;;12.70;5.80;;;;;;;12.15;100.00;64227.84;5071486;28;20296;-54
2023/05/14 08:27:27;;;;;;;8.53;5.80;;;;;;;12.03;100.00;64214.69;5071322;28;20269;-55
2023/05/14 08:29:52;;;;;;;8.20;4.67;;;;;;;11.99;100.00;64210.28;5071326;28;20255;-54
2023/05/14 08:32:18;;;;;;;10.83;4.50;;;;;;;12.08;100.00;64219.63;5071232;28;20197;-54
2023/05/14 08:34:43;;;;;;;6.33;4.53;;;;;;;12.24;100.00;64235.16;5070803;28;20212;-56
2023/05/14 08:37:08;;;;;;;9.33;5.07;;;;;;;12.17;100.00;64227.50;5071264;28;20786;-55
2023/05/14 08:39:34;;;;;;;6.93;4.67;;;;;;;12.19;100.00;64227.16;5071201;28;20231;-62
2023/05/14 08:42:01;;;;;;;5.13;3.97;;;;;;;12.35;100.00;64249.22;5071036;28;20177;-58
2023/05/14 08:44:38;;;;;;;7.57;4.43;;;;;;;12.20;100.00;64230.78;5071116;28;20212;-58
2023/05/14 08:47:04;;;;;;;5.97;4.63;;;;;;;12.20;100.00;64230.25;5071280;28;20202;-59
2023/05/14 08:49:43;;;;;;;6.23;4.00;;;;;;;12.24;100.00;64237.16;5070778;28;20208;-59
2023/05/14 08:52:09;;;;;;;5.10;3.90;;;;;;;12.15;100.00;64222.22;5070976;28;20697;-58
2023/05/14 08:54:35;;;;;;;5.03;3.83;;;;;;;12.15;100.00;64227.84;5070945;28;20230;-59
2023/05/14 08:57:03;;;;;;;5.90;4.47;;;;;;;12.10;100.00;64219.28;5070744;28;20239;-58
2023/05/14 08:59:28;;;;;;;4.87;4.10;;;;;;;12.26;100.00;64236.81;5070667;28;20287;-54
2023/05/14 09:01:57;;;;;;;10.07;4.97;;;;;;;12.11;100.00;64220.94;5070827;28;20195;-59
2023/05/14 09:04:23;;;;;;;12.60;5.17;;;;;;;11.90;100.00;64197.38;5070712;28;20416;-56
2023/05/14 09:06:52;;;;;;;9.07;5.10;;;;;;;12.05;100.00;64214.34;5071077;28;20181;-56
2023/05/14 09:09:21;;;;;;;13.13;5.83;;;;;;;12.00;100.00;64205.81;5078139;22;20315;-57
2023/05/14 09:11:50;;;;;;;8.13;4.63;;;;;;;12.06;100.00;64217.44;5070472;28;20288;-56
2023/05/14 09:14:16;;;;;;;8.90;4.63;;;;;;;12.19;100.00;64229.13;5070412;28;20746;-56
2023/05/14 09:16:44;;;;;;;6.13;4.43;;;;;;;12.20;100.00;64230.25;5070384;28;20193;-55
2023/05/14 09:19:11;;;;;;;5.37;4.47;;;;;;;12.27;100.00;64238.47;5070326;28;20227;-55
2023/05/14 09:21:37;;;;;;;6.27;4.10;;;;;;;12.39;100.00;64251.63;5070403;28;20195;-54
2023/05/14 09:24:02;;;;;;;5.70;4.67;;;;;;;12.31;100.00;64242.31;5070122;28;20584;-55
2023/05/14 09:26:31;;;;;;;9.00;4.23;;;;;;;12.33;100.00;64244.50;5070496;28;20731;-57
2023/05/14 09:29:01;;;;;;;5.33;4.27;;;;;;;12.20;100.00;64230.25;5070416;28;20219;-56
2023/05/14 09:31:31;;;;;;;7.20;5.63;;;;;;;12.32;100.00;64243.94;5070394;28;20220;-57
2023/05/14 09:33:58;;;;;;;7.70;5.67;;;;;;;12.23;100.00;64231.56;5070365;28;20208;-57
2023/05/14 09:36:26;;;;;;;6.10;5.10;;;;;;;12.26;100.00;64239.34;5052290;28;20204;-56
2023/05/14 09:39:12;;;;;;;10.27;5.10;;;;;;;12.17;100.00;64226.94;5070246;28;20269;-56
2023/05/14 09:41:37;;;;;;;5.30;4.70;;;;;;;12.45;100.00;64260.19;5069679;28;20283;-57
2023/05/14 09:44:03;;;;;;;5.63;4.57;;;;;;;12.34;100.00;64248.13;5070385;28;20751;-58
2023/05/14 09:46:30;;;;;;;6.47;4.80;;;;;;;12.16;100.00;64225.88;5070839;28;20189;-57
2023/05/14 09:48:55;;;;;;;5.67;4.33;;;;;;;11.98;100.00;64211.72;5073431;28;20740;-57
2023/05/14 09:51:21;;;;;;;5.93;5.10;;;;;;;12.03;100.00;64214.69;5073365;28;20209;-57
2023/05/14 09:53:49;;;;;;;8.83;4.80;;;;;;;12.05;100.00;64214.34;5073536;28;20755;-57
2023/05/14 09:56:15;;;;;;;5.27;4.77;;;;;;;12.00;100.00;64210.84;5072937;28;20785;-56
2023/05/14 09:58:40;;;;;;;7.50;5.50;;;;;;;11.98;100.00;64209.19;5072938;28;20229;-57
2023/05/14 10:01:07;;;;;;;8.57;5.50;;;;;;;12.37;100.00;64251.97;5072838;28;20185;-57
2023/05/14 10:03:32;;;;;;;7.47;5.03;;;;;;;12.47;100.00;64262.94;5072822;28;20335;-56
2023/05/14 10:06:05;;;;;;;9.63;5.10;;;;;;;12.37;100.00;64249.44;5072878;28;20648;-56
2023/05/14 10:08:34;;;;;;;5.23;4.30;;;;;;;12.24;100.00;64237.16;5073020;28;20213;-57
2023/05/14 10:11:03;;;;;;;4.93;4.43;;;;;;;12.36;100.00;64250.84;5072752;28;20684;-56
2023/05/14 10:13:38;;;;;;;6.97;4.90;;;;;;;12.35;100.00;64247.25;5072885;28;20216;-56
2023/05/14 10:16:16;;;;;;;5.90;5.00;;;;;;;12.31;100.00;64242.84;5072845;28;20200;-57
2023/05/14 10:18:47;;;;;;;8.27;5.43;;;;;;;12.51;100.00;64266.75;5072799;28;20732;-56
2023/05/14 10:21:15;;;;;;;6.80;4.87;;;;;;;12.50;100.00;64260.63;5071354;28;20258;-57
2023/05/14 10:23:41;;;;;;;5.23;4.70;;;;;;;12.44;100.00;64256.56;5072491;28;20690;-58
2023/05/14 10:26:08;;;;;;;8.90;4.90;;;;;;;12.49;100.00;64262.59;5072810;28;20238;-59
2023/05/14 10:28:35;;;;;;;9.00;5.13;;;;;;;12.55;100.00;64268.63;5072989;28;20208;-60
2023/05/14 10:31:00;;;;;;;8.20;5.33;;;;;;;12.42;100.00;64254.91;5072430;28;20260;-59
2023/05/14 10:33:26;;;;;;;20.10;14.20;;;;;;;12.24;100.00;64237.69;5072444;28;20220;-59
2023/05/14 10:35:51;;;;;;;6.73;5.10;;;;;;;12.43;100.00;64258.53;5072672;28;20695;-59
2023/05/14 10:38:22;;;;;;;5.90;4.73;;;;;;;12.65;100.00;64280.13;5072504;28;20236;-58
2023/05/14 10:40:48;;;;;;;6.80;5.13;;;;;;;12.65;100.00;64280.13;5072679;28;20188;-59
2023/05/14 10:43:16;;;;;;;7.87;5.37;;;;;;;12.42;100.00;64254.38;5072516;28;20262;-60
2023/05/14 10:45:43;;;;;;;5.20;4.70;;;;;;;12.55;100.00;64271.69;5072323;28;20184;-58
2023/05/14 10:48:09;;;;;;;5.87;4.50;;;;;;;12.39;100.00;64251.06;5072321;28;20212;-60
2023/05/14 10:50:35;;;;;;;6.03;5.33;;;;;;;12.45;100.00;64257.66;5072217;28;20732;-60
2023/05/14 10:53:01;;;;;;;7.37;5.07;;;;;;;12.38;100.00;64247.47;5072422;28;20220;-59
2023/05/14 10:55:27;;;;;;;5.70;5.10;;;;;;;12.26;100.00;64239.34;5072375;28;20189;-59
2023/05/14 10:57:52;;;;;;;6.63;5.30;;;;;;;12.27;100.00;64241.00;5072534;28;20216;-58
2023/05/14 11:00:17;;;;;;;7.20;4.97;;;;;;;12.48;100.00;64264.00;5072244;28;20181;-60
2023/05/14 11:02:43;;;;;;;6.03;5.20;;;;;;;12.34;100.00;64250.66;5072246;28;20549;-59
2023/05/14 11:05:15;;;;;;;6.50;5.50;;;;;;;12.32;100.00;64243.94;5072715;28;20273;-58
2023/05/14 11:07:43;;;;;;;7.80;5.40;;;;;;;12.32;100.00;64243.41;5072071;28;20192;-60
2023/05/14 11:10:11;;;;;;;5.50;5.00;;;;;;;12.34;100.00;64243.06;5071910;28;20258;-59
2023/05/14 11:12:39;;;;;;;5.03;4.40;;;;;;;12.62;100.00;64276.31;5072155;28;20201;-60
2023/05/14 11:15:09;;;;;;;5.23;4.20;;;;;;;12.66;100.00;64283.22;5070579;28;20212;-59
2023/05/14 11:17:36;;;;;;;5.17;4.50;;;;;;;12.39;100.00;64248.53;5071822;28;20223;-60
2023/05/14 11:20:04;;;;;;;6.67;4.97;;;;;;;12.44;100.00;64257.09;5053859;28;20595;-58
2023/05/14 11:22:29;;;;;;;7.80;4.97;;;;;;;12.43;100.00;64257.97;5071896;28;20195;-59
2023/05/14 11:25:01;;;;;;;7.47;4.87;;;;;;;12.41;100.00;64253.81;5071704;28;20201;-59